Time;durP1;ratioP1;P1;durP2;ratioP2;P2;SDS_P1;SDS_P2;PMS_P1;PMS_P2;Temp;Humidity;BMP_temperature;BMP_pressure;BME280_temperature;BME280_humidity;BME280_pressure;Samples;Min_cycle;Max_cycle;Signal;HPM_P1;HPM_P2
2023/09/01 00:00:24;;;;;;;4.55;3.63;;;;;;;25.20;40.44;95271.63;6110233;28;109028;-66
2023/09/01 00:03:27;;;;;;;4.95;3.90;;;;;;;25.26;39.91;95267.69;6111523;28;108904;-66
2023/09/01 00:06:31;;;;;;;5.55;3.80;;;;;;;25.31;40.28;95268.28;6113450;28;108781;-67
2023/09/01 00:09:34;;;;;;;5.10;3.72;;;;;;;25.35;40.47;95276.50;6102322;28;108826;-67
2023/09/01 00:12:38;;;;;;;4.75;3.47;;;;;;;25.30;40.36;95279.31;6112577;28;108989;-67
2023/09/01 00:15:41;;;;;;;3.70;2.80;;;;;;;25.20;40.12;95282.34;6114679;28;108982;-67
2023/09/01 00:18:44;;;;;;;4.03;3.23;;;;;;;25.12;40.73;95280.47;6113689;28;108865;-67
2023/09/01 00:21:48;;;;;;;4.03;3.30;;;;;;;25.12;40.38;95286.63;6104557;28;108847;-66
2023/09/01 00:24:51;;;;;;;4.47;3.03;;;;;;;25.09;40.28;95284.59;6113519;28;109073;-66
2023/09/01 00:27:55;;;;;;;5.97;3.50;;;;;;;25.02;40.47;95277.03;6114427;28;109114;-67
2023/09/01 00:31:00;;;;;;;3.85;2.85;;;;;;;25.01;40.31;95277.34;6108963;28;108650;-66
2023/09/01 00:34:03;;;;;;;5.30;3.10;;;;;;;25.07;40.44;95279.56;6109879;28;109079;-65
2023/09/01 00:37:06;;;;;;;4.70;3.47;;;;;;;25.11;40.36;95285.06;6106906;28;108680;-65
2023/09/01 00:40:10;;;;;;;3.63;3.00;;;;;;;25.14;40.27;95280.94;6114608;28;109220;-65
2023/09/01 00:43:14;;;;;;;5.97;3.00;;;;;;;25.13;40.17;95285.50;6103022;28;109065;-64
2023/09/01 00:46:18;;;;;;;3.83;2.95;;;;;;;25.03;40.08;95280.47;6101558;28;108817;-64
2023/09/01 00:49:21;;;;;;;3.80;3.00;;;;;;;24.84;40.28;95280.06;6111681;28;108954;-65
2023/09/01 00:52:24;;;;;;;3.70;3.00;;;;;;;24.88;40.49;95279.13;6113894;28;108929;-65
2023/09/01 00:55:28;;;;;;;3.60;3.00;;;;;;;24.95;40.34;95279.41;6101983;28;108879;-64
2023/09/01 00:58:32;;;;;;;3.67;2.90;;;;;;;24.93;40.35;95278.94;6111356;28;109132;-64
2023/09/01 01:01:36;;;;;;;4.28;2.83;;;;;;;24.82;40.76;95277.69;6111922;28;108976;-65
2023/09/01 01:04:39;;;;;;;5.65;2.60;;;;;;;24.75;40.77;95277.41;6107370;28;109059;-66
2023/09/01 01:07:51;;;;;;;3.50;2.90;;;;;;;24.57;41.12;95278.50;6108580;28;111242;-71
2023/09/01 01:11:02;;;;;;;3.43;3.00;;;;;;;24.77;40.68;95280.53;6110570;28;109175;-71
2023/09/01 01:14:15;;;;;;;4.00;3.00;;;;;;;24.87;40.44;95287.47;6112299;28;109115;-71
2023/09/01 01:17:20;;;;;;;4.10;3.10;;;;;;;24.85;40.55;95282.41;6101130;28;108748;-71
2023/09/01 01:20:31;;;;;;;3.67;2.80;;;;;;;24.88;40.36;95276.44;6109369;28;108780;-71
2023/09/01 01:23:37;;;;;;;3.50;2.70;;;;;;;24.98;40.36;95278.78;6111660;28;108601;-73
2023/09/01 01:26:40;;;;;;;4.00;2.87;;;;;;;24.97;40.30;95287.91;6112883;28;108970;-71
2023/09/01 01:29:43;;;;;;;3.90;3.30;;;;;;;24.87;40.36;95280.22;6102414;28;108825;-72
2023/09/01 01:32:46;;;;;;;5.10;2.80;;;;;;;24.87;40.27;95282.91;6113127;28;108921;-73
2023/09/01 01:35:57;;;;;;;3.40;2.70;;;;;;;24.85;40.34;95270.91;6114325;28;108730;-72
2023/09/01 01:39:04;;;;;;;4.40;2.90;;;;;;;24.84;40.27;95272.81;6108520;28;109224;-70
2023/09/01 01:42:11;;;;;;;3.65;2.70;;;;;;;24.91;40.31;95266.97;6108839;28;108769;-72
2023/09/01 01:45:20;;;;;;;4.38;2.90;;;;;;;24.87;40.24;95266.84;6113382;28;109112;-72
2023/09/01 01:48:23;;;;;;;4.00;3.10;;;;;;;24.82;39.87;95258.97;6111463;28;108954;-72
2023/09/01 01:51:26;;;;;;;3.55;2.58;;;;;;;24.75;40.54;95264.00;6089475;28;108735;-72
2023/09/01 01:54:32;;;;;;;4.05;2.70;;;;;;;24.78;40.24;95268.72;6113697;28;108593;-72
2023/09/01 01:57:36;;;;;;;5.28;3.20;;;;;;;24.86;40.15;95269.81;6112135;28;108798;-71
2023/09/01 02:00:39;;;;;;;3.47;2.70;;;;;;;24.91;40.25;95265.09;6112750;28;110582;-71
2023/09/01 02:03:42;;;;;;;4.23;2.70;;;;;;;24.95;39.75;95259.88;6102320;28;109774;-71
2023/09/01 02:06:46;;;;;;;3.70;2.60;;;;;;;24.94;40.00;95280.50;6110521;28;108876;-71
2023/09/01 02:09:50;;;;;;;3.20;2.83;;;;;;;24.85;40.44;95270.91;6110501;28;110142;-72
2023/09/01 02:12:53;;;;;;;5.10;3.20;;;;;;;24.71;40.24;95263.88;6106530;28;108752;-72
2023/09/01 02:15:56;;;;;;;3.40;2.60;;;;;;;24.71;40.54;95269.22;6105775;28;109393;-73
2023/09/01 02:18:59;;;;;;;4.63;2.95;;;;;;;24.72;40.49;95264.66;6108954;28;108960;-72
2023/09/01 02:22:05;;;;;;;4.43;2.90;;;;;;;24.77;40.51;95267.94;6113062;28;108658;-71
2023/09/01 02:25:10;;;;;;;3.85;2.83;;;;;;;24.82;40.55;95263.53;6102889;28;109887;-70
2023/09/01 02:28:14;;;;;;;4.53;2.58;;;;;;;24.82;40.17;95269.66;6111901;28;108906;-71
2023/09/01 02:31:18;;;;;;;3.40;2.90;;;;;;;24.81;40.45;95260.06;6112714;28;108954;-70
2023/09/01 02:34:21;;;;;;;3.10;2.60;;;;;;;24.79;40.05;95273.75;6105565;28;109224;-72
2023/09/01 02:37:25;;;;;;;3.40;2.72;;;;;;;24.78;40.14;95274.09;6100864;28;108843;-71
2023/09/01 02:40:30;;;;;;;3.60;2.70;;;;;;;24.79;40.49;95279.13;6096383;28;108674;-69
2023/09/01 02:43:33;;;;;;;3.65;2.65;;;;;;;24.82;40.18;95274.22;6111713;28;108582;-71
2023/09/01 02:46:36;;;;;;;4.90;3.00;;;;;;;24.81;40.40;95276.13;6105190;28;108496;-71
2023/09/01 02:49:39;;;;;;;4.70;3.28;;;;;;;24.77;40.47;95273.28;6101780;28;108935;-70
2023/09/01 02:52:42;;;;;;;3.88;3.08;;;;;;;24.68;40.61;95275.19;6104898;28;108756;-69
2023/09/01 02:55:47;;;;;;;6.35;3.10;;;;;;;24.65;40.50;95277.69;6112587;28;109164;-70
2023/09/01 02:58:50;;;;;;;5.57;4.28;;;;;;;24.58;40.80;95274.72;6098983;28;110000;-71
2023/09/01 03:01:53;;;;;;;3.78;3.20;;;;;;;24.36;41.16;95275.63;6109526;28;109032;-70
2023/09/01 03:04:56;;;;;;;4.25;3.10;;;;;;;24.38;40.80;95282.28;6110678;28;108686;-70
2023/09/01 03:08:00;;;;;;;4.40;3.40;;;;;;;24.49;40.38;95272.03;6109579;28;108975;-70
2023/09/01 03:11:06;;;;;;;7.60;6.80;;;;;;;24.56;40.21;95276.91;6099985;28;109310;-69
2023/09/01 03:14:09;;;;;;;6.80;5.73;;;;;;;24.49;40.42;95280.03;6099971;28;110065;-70
2023/09/01 03:17:12;;;;;;;5.45;3.45;;;;;;;24.46;40.69;95273.44;6105491;28;109660;-69
2023/09/01 03:20:15;;;;;;;4.80;4.30;;;;;;;24.56;40.65;95284.94;6107053;28;108876;-70
2023/09/01 03:23:18;;;;;;;6.55;5.95;;;;;;;24.67;40.28;95278.16;6100856;28;109081;-70
2023/09/01 03:26:23;;;;;;;7.60;6.90;;;;;;;24.75;40.17;95286.22;6110035;28;108566;-71
2023/09/01 03:29:26;;;;;;;5.15;4.50;;;;;;;24.79;40.03;95291.72;6109999;28;108716;-71
2023/09/01 03:32:30;;;;;;;5.32;4.78;;;;;;;24.78;40.16;95284.78;6104137;28;108852;-70
2023/09/01 03:35:33;;;;;;;5.65;4.70;;;;;;;24.73;40.11;95284.97;6106782;28;109258;-71
2023/09/01 03:38:37;;;;;;;5.10;4.20;;;;;;;24.72;40.50;95292.22;6118539;28;109032;-71
2023/09/01 03:41:41;;;;;;;5.60;4.45;;;;;;;24.71;40.02;95296.00;6118040;28;108927;-70
2023/09/01 03:44:45;;;;;;;5.90;3.80;;;;;;;24.67;40.33;95292.31;6109097;28;109213;-69
2023/09/01 03:47:48;;;;;;;5.65;3.70;;;;;;;24.65;40.24;95288.38;6117746;28;108823;-70
2023/09/01 03:51:05;;;;;;;6.10;4.00;;;;;;;24.61;40.15;95287.44;6118511;28;108800;-69
2023/09/01 03:54:08;;;;;;;6.68;3.40;;;;;;;24.52;40.54;95286.66;6107609;28;108707;-71
2023/09/01 03:57:15;;;;;;;5.22;3.53;;;;;;;24.54;40.66;95284.47;6104585;28;109909;-69
2023/09/01 04:00:19;;;;;;;5.38;3.72;;;;;;;24.55;40.53;95292.19;6117345;28;108969;-70
2023/09/01 04:03:23;;;;;;;297.30;104.03;;;;;;;24.58;40.80;95291.56;6117009;28;108981;-70
2023/09/01 04:06:26;;;;;;;54.63;23.33;;;;;;;24.49;40.44;95298.78;6107399;28;108946;-71
2023/09/01 04:09:29;;;;;;;28.73;12.30;;;;;;;24.49;40.53;95299.56;6106905;28;109208;-70
2023/09/01 04:12:34;;;;;;;30.80;16.30;;;;;;;24.63;41.01;95309.31;6117200;28;108901;-72
2023/09/01 04:15:37;;;;;;;27.98;14.48;;;;;;;24.77;40.75;95305.41;6110450;28;108813;-71
2023/09/01 04:18:40;;;;;;;23.30;12.60;;;;;;;24.87;40.88;95311.56;6108180;28;108803;-72
2023/09/01 04:21:43;;;;;;;14.45;8.20;;;;;;;24.78;40.65;95312.34;6118890;28;108852;-72
2023/09/01 04:24:46;;;;;;;13.43;7.72;;;;;;;24.67;40.53;95316.41;6113833;28;108633;-71
2023/09/01 04:27:51;;;;;;;11.90;8.27;;;;;;;24.59;40.81;95314.53;6117005;28;108841;-71
2023/09/01 04:30:54;;;;;;;8.70;5.90;;;;;;;24.57;41.17;95321.31;6107327;28;109327;-70
2023/09/01 04:33:57;;;;;;;7.18;4.65;;;;;;;24.54;40.70;95322.72;6118267;28;109888;-71
2023/09/01 04:37:03;;;;;;;8.88;7.07;;;;;;;24.50;40.86;95319.88;6118240;28;108893;-68
2023/09/01 04:40:09;;;;;;;6.88;5.35;;;;;;;24.47;40.81;95319.72;6117905;28;108824;-68
2023/09/01 04:43:13;;;;;;;6.90;4.70;;;;;;;24.43;40.81;95318.78;6107750;28;108875;-68
2023/09/01 04:46:16;;;;;;;5.70;4.30;;;;;;;23.62;42.31;95318.38;6110342;28;109024;-68
2023/09/01 04:49:19;;;;;;;4.22;3.45;;;;;;;23.21;43.77;95317.53;6112403;28;108593;-69
2023/09/01 04:52:24;;;;;;;5.13;4.40;;;;;;;23.30;43.43;95323.72;6106992;28;110824;-68
2023/09/01 04:55:44;;;;;;;5.07;4.10;;;;;;;23.55;42.81;95326.84;6114827;28;108564;-68
2023/09/01 04:58:49;;;;;;;5.20;4.13;;;;;;;23.96;41.83;95328.41;6113997;28;108799;-68
2023/09/01 05:01:52;;;;;;;6.10;5.05;;;;;;;24.12;41.96;95332.25;6113543;28;108923;-68
2023/09/01 05:04:55;;;;;;;7.22;6.53;;;;;;;24.16;41.84;95333.19;6106335;28;109524;-68
2023/09/01 05:07:58;;;;;;;6.40;5.80;;;;;;;24.23;41.81;95341.56;6114275;28;108752;-68
2023/09/01 05:11:01;;;;;;;5.63;4.35;;;;;;;24.27;41.19;95350.53;6114117;28;108661;-68
2023/09/01 05:14:06;;;;;;;6.60;6.00;;;;;;;24.28;41.98;95351.31;6113862;28;109008;-69
2023/09/01 05:17:09;;;;;;;8.73;6.37;;;;;;;24.33;41.83;95357.28;6103140;28;108593;-68
2023/09/01 05:20:12;;;;;;;10.50;7.60;;;;;;;24.40;41.92;95363.00;6113999;28;108602;-67
2023/09/01 05:23:15;;;;;;;8.00;7.20;;;;;;;24.43;42.24;95362.34;6114462;28;108646;-67
2023/09/01 05:26:19;;;;;;;8.23;6.97;;;;;;;24.42;41.69;95366.13;6106321;28;109041;-68
2023/09/01 05:29:24;;;;;;;9.93;7.40;;;;;;;24.44;42.26;95353.22;6112550;28;108733;-66
2023/09/01 05:32:28;;;;;;;8.35;7.10;;;;;;;24.54;42.02;95354.03;6101057;28;108848;-68
2023/09/01 05:35:31;;;;;;;8.93;7.97;;;;;;;24.55;42.14;95355.63;6113184;28;108828;-68
2023/09/01 05:38:34;;;;;;;9.93;8.05;;;;;;;24.55;42.38;95363.66;6103090;28;109056;-68
2023/09/01 05:41:37;;;;;;;12.60;7.40;;;;;;;24.54;42.51;95365.53;6113580;28;108989;-68
2023/09/01 05:44:42;;;;;;;9.80;7.10;;;;;;;24.60;42.00;95376.84;6098315;28;109078;-68
2023/09/01 05:47:45;;;;;;;8.37;6.70;;;;;;;24.66;42.62;95364.88;6114004;28;108917;-70
2023/09/01 05:50:48;;;;;;;11.37;6.57;;;;;;;24.75;42.53;95365.72;6094214;28;109064;-70
2023/09/01 05:53:51;;;;;;;9.77;6.87;;;;;;;24.73;42.74;95358.00;6107286;28;109512;-70
2023/09/01 05:56:55;;;;;;;13.02;7.00;;;;;;;24.71;43.05;95367.47;6106817;28;108714;-70
2023/09/01 05:59:59;;;;;;;8.52;5.80;;;;;;;24.66;43.25;95362.22;6108774;28;109318;-69
2023/09/01 06:03:03;;;;;;;9.37;6.27;;;;;;;24.79;42.26;95369.34;6106844;28;108751;-72
2023/09/01 06:06:08;;;;;;;18.17;16.43;;;;;;;24.92;42.23;95368.41;6113250;28;109147;-72
2023/09/01 06:09:11;;;;;;;14.45;13.00;;;;;;;25.02;42.10;95369.94;6113190;28;108623;-70
2023/09/01 06:12:15;;;;;;;11.40;10.30;;;;;;;25.06;42.21;95365.56;6103318;28;108745;-70
2023/09/01 06:15:19;;;;;;;14.57;13.07;;;;;;;25.13;42.10;95370.44;6113036;28;108582;-71
2023/09/01 06:18:22;;;;;;;10.57;7.63;;;;;;;25.18;41.92;95378.28;6113229;28;108656;-70
2023/09/01 06:21:26;;;;;;;11.50;10.23;;;;;;;25.19;42.15;95375.28;6113255;28;109025;-71
2023/09/01 06:24:29;;;;;;;12.43;10.20;;;;;;;25.21;42.25;95380.34;6103127;28;109108;-70
2023/09/01 06:27:37;;;;;;;13.65;10.30;;;;;;;25.28;42.24;95377.97;6113625;28;108635;-71
2023/09/01 06:30:42;;;;;;;11.45;9.85;;;;;;;25.33;42.40;95383.16;6113247;28;109169;-71
2023/09/01 06:33:47;;;;;;;11.73;8.20;;;;;;;25.44;42.14;95381.75;6112350;28;108678;-72
2023/09/01 06:36:50;;;;;;;9.07;7.68;;;;;;;25.52;41.47;95386.28;6095950;28;110048;-72
2023/09/01 06:39:53;;;;;;;9.35;7.90;;;;;;;25.54;41.34;95394.00;6112945;28;108764;-71
2023/09/01 06:42:56;;;;;;;10.05;7.70;;;;;;;25.52;41.39;95397.00;6113300;28;109008;-71
2023/09/01 06:46:01;;;;;;;10.07;7.90;;;;;;;25.45;41.65;95404.75;6107440;28;108636;-70
2023/09/01 06:49:05;;;;;;;8.83;7.33;;;;;;;25.50;41.49;95396.53;6110528;28;109075;-71
2023/09/01 06:52:08;;;;;;;7.82;6.90;;;;;;;25.47;41.33;95402.56;6112900;28;109116;-71
2023/09/01 06:55:12;;;;;;;9.70;6.55;;;;;;;25.52;41.19;95405.06;6101258;28;108764;-71
2023/09/01 06:58:15;;;;;;;7.10;6.37;;;;;;;25.53;41.43;95401.25;6098809;28;108763;-72
2023/09/01 07:01:21;;;;;;;8.00;6.25;;;;;;;25.65;41.30;95405.97;6112522;28;108610;-72
2023/09/01 07:04:26;;;;;;;10.05;6.00;;;;;;;25.72;42.14;95408.19;6112191;28;108453;-70
2023/09/01 07:07:29;;;;;;;8.97;6.30;;;;;;;25.74;41.45;95404.06;6112662;28;108903;-72
2023/09/01 07:10:32;;;;;;;6.70;6.00;;;;;;;25.82;42.03;95402.47;6100537;28;108802;-72
2023/09/01 07:13:35;;;;;;;9.40;6.00;;;;;;;25.88;41.56;95401.19;6112539;28;109067;-72
2023/09/01 07:16:39;;;;;;;6.90;5.90;;;;;;;25.80;41.11;95404.69;6112606;28;108929;-72
2023/09/01 07:19:42;;;;;;;7.72;5.50;;;;;;;25.82;40.98;95402.47;6107621;28;108616;-71
2023/09/01 07:22:46;;;;;;;6.43;5.53;;;;;;;25.75;41.08;95408.31;6106731;28;108868;-71
2023/09/01 07:25:49;;;;;;;8.75;5.70;;;;;;;25.73;41.49;95410.53;6112137;28;108645;-71
2023/09/01 07:28:52;;;;;;;6.63;5.00;;;;;;;25.74;41.21;95403.28;6095894;28;108545;-72
2023/09/01 07:31:56;;;;;;;5.40;4.45;;;;;;;25.76;41.31;95403.75;6100960;28;108864;-70
2023/09/01 07:34:59;;;;;;;5.37;4.53;;;;;;;25.57;41.51;95401.44;6111038;28;109197;-72
2023/09/01 07:38:03;;;;;;;6.80;4.80;;;;;;;25.60;41.85;95398.91;6111103;28;109057;-71
2023/09/01 07:41:07;;;;;;;6.75;4.60;;;;;;;25.58;41.70;95403.78;6102673;28;108766;-72
2023/09/01 07:44:16;;;;;;;5.23;4.13;;;;;;;25.74;41.23;95408.66;6094080;28;109091;-71
2023/09/01 07:47:20;;;;;;;6.03;4.15;;;;;;;25.90;41.13;95404.34;6111616;28;108595;-71
2023/09/01 07:50:24;;;;;;;5.10;4.60;;;;;;;25.84;41.01;95401.03;6108234;28;108567;-71
2023/09/01 07:53:27;;;;;;;4.83;4.33;;;;;;;25.92;41.30;95400.22;6098599;28;108945;-71
2023/09/01 07:56:30;;;;;;;6.03;4.50;;;;;;;26.19;41.41;95395.53;6100957;28;109052;-71
2023/09/01 07:59:33;;;;;;;5.00;4.20;;;;;;;26.34;40.14;95396.88;6111019;28;109078;-70
2023/09/01 08:02:37;;;;;;;5.00;4.30;;;;;;;26.40;40.27;95395.63;6095091;28;108995;-70
2023/09/01 08:05:41;;;;;;;6.00;4.70;;;;;;;26.40;40.03;95398.28;6101455;28;108746;-68
2023/09/01 08:08:44;;;;;;;5.25;4.30;;;;;;;26.42;40.10;95401.44;6109972;28;108940;-69
2023/09/01 08:11:47;;;;;;;6.25;5.00;;;;;;;26.48;39.86;95402.81;6110487;28;109002;-69
2023/09/01 08:14:51;;;;;;;5.50;4.90;;;;;;;26.52;40.07;95401.84;6110467;28;108623;-70
2023/09/01 08:17:55;;;;;;;6.30;4.70;;;;;;;26.57;39.61;95390.91;6100106;28;108785;-69
2023/09/01 08:21:03;;;;;;;5.78;4.78;;;;;;;26.60;40.13;95400.22;6104579;28;108610;-71
2023/09/01 08:24:07;;;;;;;6.60;5.22;;;;;;;26.60;40.25;95399.44;6105790;28;108734;-70
2023/09/01 08:27:10;;;;;;;5.15;4.60;;;;;;;26.61;39.43;95396.41;6107334;28;108727;-69
2023/09/01 08:30:14;;;;;;;5.05;4.65;;;;;;;26.61;40.02;95396.41;6105252;28;111398;-70
2023/09/01 08:33:21;;;;;;;5.70;4.93;;;;;;;26.58;39.80;95391.72;6099930;28;108785;-69
2023/09/01 08:36:24;;;;;;;6.07;5.47;;;;;;;26.57;39.95;95393.59;6113648;28;108817;-70
2023/09/01 08:39:27;;;;;;;7.40;6.70;;;;;;;26.66;39.74;95388.19;6109548;28;108718;-70
2023/09/01 08:42:31;;;;;;;8.18;7.47;;;;;;;26.70;39.60;95383.75;6109568;28;110149;-70
2023/09/01 08:45:35;;;;;;;11.18;10.18;;;;;;;26.65;39.58;95377.78;6115210;28;108714;-70
2023/09/01 08:48:39;;;;;;;10.20;9.40;;;;;;;26.63;39.51;95379.97;6115355;28;109257;-69
2023/09/01 08:51:46;;;;;;;10.10;9.30;;;;;;;26.63;39.51;95378.13;6105995;28;108767;-69
2023/09/01 08:54:50;;;;;;;9.10;8.40;;;;;;;26.67;39.92;95384.41;6115380;28;108909;-70
2023/09/01 08:57:53;;;;;;;9.60;8.90;;;;;;;26.61;39.80;95372.25;6114425;28;108647;-71
2023/09/01 09:00:57;;;;;;;8.65;8.00;;;;;;;26.65;39.44;95375.88;6115244;28;108527;-70
2023/09/01 09:04:03;;;;;;;8.20;7.60;;;;;;;26.69;39.46;95368.75;6104558;28;109194;-70
2023/09/01 09:07:13;;;;;;;9.10;8.30;;;;;;;26.64;39.53;95377.00;6113667;28;108756;-70
2023/09/01 09:10:16;;;;;;;8.63;7.93;;;;;;;26.61;39.45;95379.53;6110879;28;108719;-70
2023/09/01 09:13:24;;;;;;;8.55;7.85;;;;;;;26.41;39.96;95373.03;6108339;28;108842;-70
2023/09/01 09:16:27;;;;;;;7.45;6.85;;;;;;;26.26;39.25;95372.47;6108589;28;109218;-69
2023/09/01 09:19:31;;;;;;;7.50;6.90;;;;;;;26.24;39.36;95372.03;6109466;28;109016;-70
2023/09/01 09:22:50;;;;;;;7.10;6.50;;;;;;;26.33;39.38;95363.91;6112174;28;109008;-68
2023/09/01 09:26:03;;;;;;;6.70;6.20;;;;;;;26.33;38.80;95363.13;6090264;28;109229;-68
2023/09/01 09:29:07;;;;;;;6.40;5.90;;;;;;;26.17;38.96;95361.00;6107875;28;109196;-68
2023/09/01 09:32:17;;;;;;;7.13;6.53;;;;;;;26.11;38.96;95356.94;6102643;28;109267;-69
2023/09/01 09:35:24;;;;;;;6.75;6.15;;;;;;;26.20;38.97;95346.94;6109999;28;108919;-68
2023/09/01 09:38:40;;;;;;;6.90;6.40;;;;;;;26.16;38.57;95345.22;6099785;28;108864;-68
2023/09/01 09:41:46;;;;;;;6.70;6.20;;;;;;;26.05;38.31;95352.88;6097782;28;108989;-69
2023/09/01 09:44:52;;;;;;;7.10;6.50;;;;;;;26.01;38.95;95351.13;6112978;28;108752;-68
2023/09/01 09:47:59;;;;;;;6.83;6.23;;;;;;;26.02;38.49;95341.97;6103642;28;109274;-68
2023/09/01 09:51:07;;;;;;;6.80;6.30;;;;;;;25.99;38.70;95346.84;6112893;28;109285;-67
2023/09/01 09:54:11;;;;;;;6.13;5.63;;;;;;;25.97;38.98;95345.63;6109927;28;108728;-68
2023/09/01 09:57:16;;;;;;;7.07;6.47;;;;;;;25.97;39.02;95345.63;6103707;28;108787;-70
2023/09/01 10:00:22;;;;;;;7.13;6.30;;;;;;;25.91;38.90;95342.34;6087640;28;111443;-68
2023/09/01 10:03:29;;;;;;;6.78;6.28;;;;;;;25.91;39.00;95342.34;6113119;28;108694;-68
2023/09/01 10:06:35;;;;;;;5.95;5.45;;;;;;;26.12;38.63;95337.03;6111283;28;108838;-69
2023/09/01 10:09:39;;;;;;;6.72;6.13;;;;;;;26.01;38.44;95341.19;6111103;28;109041;-68
2023/09/01 10:12:42;;;;;;;6.10;5.60;;;;;;;26.10;38.79;95325.06;6101674;28;109528;-67
2023/09/01 10:15:46;;;;;;;6.70;6.10;;;;;;;26.03;38.60;95325.56;6112001;28;108811;-68
2023/09/01 10:18:52;;;;;;;6.63;6.10;;;;;;;25.94;38.51;95327.50;6106226;28;108802;-68
2023/09/01 10:21:57;;;;;;;6.40;5.90;;;;;;;25.97;38.54;95337.56;6105057;28;109008;-69
2023/09/01 10:25:15;;;;;;;5.85;5.30;;;;;;;26.22;37.90;95334.00;6110144;28;110534;-69
2023/09/01 10:28:22;;;;;;;6.40;5.90;;;;;;;26.45;37.41;95333.69;6104265;28;109074;-67
2023/09/01 10:31:25;;;;;;;6.10;5.60;;;;;;;26.28;37.95;95334.59;6109750;28;109036;-69
2023/09/01 10:34:29;;;;;;;6.70;6.20;;;;;;;26.15;38.09;95327.56;6095247;28;109094;-66
2023/09/01 10:37:33;;;;;;;6.03;5.53;;;;;;;26.35;38.24;95328.69;6108866;28;109300;-65
2023/09/01 10:40:40;;;;;;;5.68;5.28;;;;;;;26.33;38.18;95326.34;6109469;28;108816;-66
2023/09/01 10:43:54;;;;;;;6.40;5.80;;;;;;;26.21;38.31;95328.94;6109581;28;108752;-66
2023/09/01 10:46:57;;;;;;;5.90;5.30;;;;;;;26.34;37.77;95324.44;6096286;28;109376;-66
2023/09/01 10:50:01;;;;;;;7.30;6.60;;;;;;;26.38;37.64;95325.34;6111188;28;111081;-65
2023/09/01 10:53:31;;;;;;;8.57;6.90;;;;;;;26.42;38.00;95320.94;6109122;28;109258;-66
2023/09/01 10:56:56;;;;;;;11.27;8.90;;;;;;;26.47;37.94;95320.72;6092904;28;109258;-64
2023/09/01 10:59:59;;;;;;;20.47;14.70;;;;;;;26.25;37.55;95311.88;6108440;28;109324;-66
2023/09/01 11:03:28;;;;;;;19.33;15.33;;;;;;;26.15;38.07;95312.25;6097679;28;109430;-66
2023/09/01 11:07:01;;;;;;;16.25;13.48;;;;;;;26.25;37.58;95301.16;6109834;28;109824;-65
2023/09/01 11:10:06;;;;;;;22.42;15.88;;;;;;;26.14;38.55;95305.31;6102327;28;108938;-67
2023/09/01 11:13:16;;;;;;;29.50;20.98;;;;;;;26.12;37.77;95302.19;6110077;28;108865;-66
2023/09/01 11:16:19;;;;;;;27.85;19.65;;;;;;;26.20;37.48;95300.53;6108471;28;108779;-66
2023/09/01 11:19:22;;;;;;;24.52;18.52;;;;;;;26.22;37.54;95290.28;6098426;28;108901;-66
2023/09/01 11:22:26;;;;;;;24.23;18.17;;;;;;;26.17;38.02;95296.63;6109773;28;108874;-65
2023/09/01 11:25:32;;;;;;;26.20;17.88;;;;;;;26.15;38.07;95295.38;6107067;28;108652;-65
2023/09/01 11:28:35;;;;;;;20.65;15.60;;;;;;;26.15;37.96;95285.44;6108916;28;108964;-66
2023/09/01 11:31:40;;;;;;;11.65;10.05;;;;;;;26.32;37.43;95281.06;6098974;28;108892;-66
2023/09/01 11:34:43;;;;;;;11.32;9.57;;;;;;;26.42;37.01;95275.31;6109644;28;109034;-65
2023/09/01 11:37:46;;;;;;;13.50;11.77;;;;;;;26.41;37.51;95279.88;6107794;28;109159;-67
2023/09/01 11:40:52;;;;;;;24.73;19.05;;;;;;;26.26;37.25;95267.84;6098917;28;108928;-68
2023/09/01 11:43:55;;;;;;;24.63;18.60;;;;;;;26.19;37.40;95270.25;6103956;28;108893;-67
2023/09/01 11:46:58;;;;;;;19.10;14.67;;;;;;;26.27;37.64;95260.56;6108540;28;108901;-68
2023/09/01 11:50:02;;;;;;;9.50;6.97;;;;;;;26.34;36.38;95266.19;6108893;28;108906;-67
2023/09/01 11:53:05;;;;;;;7.65;6.90;;;;;;;26.39;36.71;95257.97;6089463;28;110135;-66
2023/09/01 11:56:22;;;;;;;11.45;8.48;;;;;;;26.40;37.13;95256.06;6105578;28;109705;-66
2023/09/01 11:59:27;;;;;;;20.38;14.95;;;;;;;26.35;36.81;95253.56;6112225;28;109861;-68
2023/09/01 12:02:31;;;;;;;24.15;18.08;;;;;;;26.29;37.19;95244.94;6112468;28;108930;-68
2023/09/01 12:05:35;;;;;;;10.13;8.98;;;;;;;26.39;36.72;95254.50;6103996;28;108975;-67
2023/09/01 12:08:38;;;;;;;13.52;11.77;;;;;;;26.30;37.23;95245.72;6112965;28;109137;-66
2023/09/01 12:11:54;;;;;;;11.80;10.70;;;;;;;26.24;36.35;95245.13;6113853;28;108749;-67
2023/09/01 12:15:04;;;;;;;9.83;8.83;;;;;;;26.25;36.79;95252.84;6108442;28;108957;-68
2023/09/01 12:18:27;;;;;;;10.80;9.70;;;;;;;26.27;36.46;95241.78;6104912;28;109063;-66
2023/09/01 12:21:30;;;;;;;13.93;11.17;;;;;;;26.30;36.19;95235.75;6109552;28;108849;-67
2023/09/01 12:24:33;;;;;;;16.70;13.50;;;;;;;26.31;36.32;95236.56;6112470;28;108820;-67
2023/09/01 12:27:38;;;;;;;21.83;17.30;;;;;;;26.28;36.46;95232.63;6098392;28;109964;-68
2023/09/01 12:30:41;;;;;;;21.77;17.92;;;;;;;26.30;35.88;95243.03;6111972;28;111451;-68
2023/09/01 12:33:44;;;;;;;18.52;14.88;;;;;;;26.35;36.48;95237.47;6113586;28;109853;-68
2023/09/01 12:36:49;;;;;;;19.45;15.40;;;;;;;26.34;36.62;95225.16;6111843;28;109855;-68
2023/09/01 12:39:52;;;;;;;12.15;9.90;;;;;;;26.42;36.18;95224.31;6103654;28;108784;-68
2023/09/01 12:42:56;;;;;;;9.60;7.43;;;;;;;26.41;36.25;95225.44;6099106;28;108971;-65
2023/09/01 12:46:00;;;;;;;11.13;8.95;;;;;;;26.41;36.16;95225.44;6111587;28;108798;-67
2023/09/01 12:49:03;;;;;;;20.20;15.35;;;;;;;26.41;36.64;95225.44;6106034;28;108794;-67
2023/09/01 12:52:06;;;;;;;22.13;16.10;;;;;;;26.41;36.71;95218.16;6101485;28;109206;-71
2023/09/01 12:55:10;;;;;;;17.60;13.90;;;;;;;26.40;35.46;95223.88;6110818;28;110259;-71
2023/09/01 12:58:15;;;;;;;14.52;11.65;;;;;;;26.43;35.17;95225.88;6113785;28;108804;-70
2023/09/01 13:01:18;;;;;;;12.68;8.98;;;;;;;26.52;34.81;95221.22;6104453;28;108862;-70
2023/09/01 13:04:21;;;;;;;9.73;5.50;;;;;;;26.47;35.06;95216.84;6114314;28;109273;-70
2023/09/01 13:07:24;;;;;;;9.05;7.95;;;;;;;26.46;34.95;95211.81;6114326;28;109702;-72
2023/09/01 13:10:29;;;;;;;10.70;9.40;;;;;;;26.51;35.62;95220.44;6112712;28;108860;-70
2023/09/01 13:13:33;;;;;;;18.48;13.65;;;;;;;26.52;35.53;95221.22;6102333;28;109254;-70
2023/09/01 13:16:36;;;;;;;19.17;14.65;;;;;;;26.51;35.86;95219.63;6111265;28;108665;-72
2023/09/01 13:19:39;;;;;;;17.93;14.27;;;;;;;26.54;35.43;95208.25;6112833;28;108776;-72
2023/09/01 13:22:43;;;;;;;18.33;14.13;;;;;;;26.55;35.13;95220.56;6113479;28;109080;-71
2023/09/01 13:25:46;;;;;;;23.10;17.33;;;;;;;26.60;35.37;95217.69;6103302;28;108860;-71
2023/09/01 13:28:50;;;;;;;26.70;18.38;;;;;;;26.56;35.31;95217.56;6113234;28;108733;-70
2023/09/01 13:31:54;;;;;;;18.23;12.63;;;;;;;26.59;35.81;95213.41;6113247;28;108597;-71
2023/09/01 13:34:57;;;;;;;15.98;10.63;;;;;;;25.93;37.34;95221.34;6101445;28;110074;-69
2023/09/01 13:38:00;;;;;;;13.82;9.90;;;;;;;24.89;37.77;95216.44;6110826;28;109046;-71
2023/09/01 13:41:04;;;;;;;22.38;16.05;;;;;;;24.46;38.54;95211.91;6113703;28;108843;-71
2023/09/01 13:44:08;;;;;;;26.08;18.50;;;;;;;24.17;38.90;95201.06;6113300;28;108722;-71
2023/09/01 13:47:11;;;;;;;30.08;20.70;;;;;;;23.72;38.27;95196.00;6100411;28;108844;-71
2023/09/01 13:50:14;;;;;;;35.30;25.30;;;;;;;23.48;38.43;95201.72;6113017;28;108860;-70
2023/09/01 13:53:17;;;;;;;32.60;24.65;;;;;;;23.04;38.67;95202.66;6108717;28;108765;-71
2023/09/01 13:56:21;;;;;;;32.92;24.67;;;;;;;22.92;38.64;95199.78;6112018;28;108728;-71
2023/09/01 13:59:26;;;;;;;30.90;23.60;;;;;;;22.60;39.20;95204.31;6100658;28;109001;-71
2023/09/01 14:02:29;;;;;;;40.70;28.37;;;;;;;22.59;38.83;95208.06;6110653;28;109103;-68
2023/09/01 14:05:33;;;;;;;41.13;29.52;;;;;;;22.51;39.01;95198.09;6102591;28;109256;-68
2023/09/01 14:08:36;;;;;;;44.08;30.92;;;;;;;22.35;38.77;95207.56;6101032;28;109069;-68
2023/09/01 14:11:39;;;;;;;47.30;33.30;;;;;;;22.29;38.42;95203.44;6106584;28;109681;-69
2023/09/01 14:14:44;;;;;;;45.65;32.90;;;;;;;22.26;38.62;95212.03;6102863;28;108786;-68